Time;durP1;ratioP1;P1;durP2;ratioP2;P2;SDS_P1;SDS_P2;PMS_P1;PMS_P2;Temp;Humidity;BMP_temperature;BMP_pressure;BME280_temperature;BME280_humidity;BME280_pressure;Samples;Min_cycle;Max_cycle;Signal;HPM_P1;HPM_P2
2022/04/18 00:01:12;;;;;;;;;;;;;;;15.12;66.76;100650.53;4427971;32;20351;-68
2022/04/18 00:03:38;;;;;;;;;;;;;;;15.04;66.63;100632.25;4422797;32;20264;-68
2022/04/18 00:06:04;;;;;;;;;;;;;;;15.28;65.88;100635.28;4428032;32;19961;-68
2022/04/18 00:08:30;;;;;;;;;;;;;;;15.26;66.01;100641.41;4427984;32;20287;-68
2022/04/18 00:10:55;;;;;;;;;;;;;;;15.29;66.45;100643.31;4426235;32;20013;-68
2022/04/18 00:13:21;;;;;;;;;;;;;;;15.38;66.73;100637.66;4428359;32;20617;-69
2022/04/18 00:15:47;;;;;;;;;;;;;;;15.46;66.27;100633.22;4423711;32;20033;-68
2022/04/18 00:18:13;;;;;;;;;;;;;;;15.59;66.25;100627.37;4422310;32;19965;-68
2022/04/18 00:20:38;;;;;;;;;;;;;;;15.96;64.66;100632.47;4428529;32;19988;-68
2022/04/18 00:23:04;;;;;;;;;;;;;;;15.61;66.35;100619.16;4427098;32;19976;-68
2022/04/18 00:25:30;;;;;;;;;;;;;;;15.64;65.80;100627.53;4424943;32;19964;-68
2022/04/18 00:27:55;;;;;;;;;;;;;;;15.56;64.77;100625.50;4423064;32;20327;-68
2022/04/18 00:30:21;;;;;;;;;;;;;;;15.74;64.82;100622.63;4427277;32;20393;-68
2022/04/18 00:32:47;;;;;;;;;;;;;;;15.80;64.32;100623.53;4427350;32;20589;-68
2022/04/18 00:35:13;;;;;;;;;;;;;;;15.86;64.88;100624.47;4428684;32;19972;-68
2022/04/18 00:37:40;;;;;;;;;;;;;;;15.60;65.90;100629.75;4430278;32;19949;-68
2022/04/18 00:40:06;;;;;;;;;;;;;;;15.58;66.46;100626.59;4423044;32;19982;-69
2022/04/18 00:42:32;;;;;;;;;;;;;;;15.74;66.02;100629.06;4428145;32;20008;-68
2022/04/18 00:44:58;;;;;;;;;;;;;;;15.64;65.61;100626.72;4425443;32;19969;-68
2022/04/18 00:47:24;;;;;;;;;;;;;;;15.65;64.68;100619.81;4426399;32;19960;-68
2022/04/18 00:49:49;;;;;;;;;;;;;;;15.66;64.92;100621.38;4417063;32;19971;-68
2022/04/18 00:52:16;;;;;;;;;;;;;;;15.66;65.62;100625.00;4428121;32;19961;-68
2022/04/18 00:55:16;;;;;;;;;;;;;;;15.65;64.55;100623.41;4425883;32;19981;-68
2022/04/18 00:57:42;;;;;;;;;;;;;;;15.67;64.64;100625.78;4428810;32;20038;-68
2022/04/18 01:00:08;;;;;;;;;;;;;;;15.45;65.75;100628.03;4429210;32;19955;-68
2022/04/18 01:02:34;;;;;;;;;;;;;;;15.41;65.60;100624.56;4428513;32;19965;-68
2022/04/18 01:05:01;;;;;;;;;;;;;;;15.52;64.75;100625.66;4431074;32;20003;-68
2022/04/18 01:07:26;;;;;;;;;;;;;;;15.61;65.19;100628.47;4432035;32;20623;-69
2022/04/18 01:09:52;;;;;;;;;;;;;;;15.67;64.86;100628.62;4428093;32;20303;-69
2022/04/18 01:12:18;;;;;;;;;;;;;;;15.61;64.58;100624.84;4426742;32;19976;-69
2022/04/18 01:14:50;;;;;;;;;;;;;;;15.34;65.88;100631.31;4425542;32;19973;-68
2022/04/18 01:17:16;;;;;;;;;;;;;;;15.18;66.29;100623.13;4432481;32;20031;-68
2022/04/18 01:19:44;;;;;;;;;;;;;;;15.04;66.85;100623.75;4429966;32;20392;-69
2022/04/18 01:22:13;;;;;;;;;;;;;;;14.73;68.31;100623.09;4424777;32;19982;-69
2022/04/18 01:30:15;;;;;;;;;;;;;;;14.41;70.00;100620.03;4430934;32;19969;-69
2022/04/18 01:32:41;;;;;;;;;;;;;;;14.35;70.13;100617.03;4433533;32;19981;-68
2022/04/18 01:35:07;;;;;;;;;;;;;;;14.35;70.26;100619.06;4432887;32;19957;-68
2022/04/18 01:37:36;;;;;;;;;;;;;;;14.46;69.34;100611.75;4430966;32;19949;-68
2022/04/18 01:40:02;;;;;;;;;;;;;;;14.40;69.81;100607.16;4433283;32;20017;-69
2022/04/18 01:42:28;;;;;;;;;;;;;;;14.23;70.57;100611.47;4431547;32;20354;-69
2022/04/18 01:44:54;;;;;;;;;;;;;;;14.16;70.93;100603.25;4421905;32;19964;-69
2022/04/18 01:47:20;;;;;;;;;;;;;;;14.13;71.09;100604.19;4430210;32;20409;-69
2022/04/18 01:49:45;;;;;;;;;;;;;;;14.12;70.98;100600.59;4417111;32;19957;-69
2022/04/18 01:52:11;;;;;;;;;;;;;;;14.36;69.88;100606.50;4429942;32;20015;-69
2022/04/18 01:54:36;;;;;;;;;;;;;;;14.10;69.70;100608.75;4431827;32;19968;-69
2022/04/18 01:57:02;;;;;;;;;;;;;;;14.02;69.50;100604.62;4431532;32;19984;-69
2022/04/18 01:59:28;;;;;;;;;;;;;;;13.98;69.42;100601.94;4426220;32;19945;-69
2022/04/18 02:01:53;;;;;;;;;;;;;;;14.07;69.00;100601.19;4424874;32;19988;-69
2022/04/18 02:04:19;;;;;;;;;;;;;;;13.98;68.07;100599.13;4430013;32;19961;-69
2022/04/18 02:06:44;;;;;;;;;;;;;;;13.98;68.48;100606.81;4430306;32;19945;-69
2022/04/18 02:09:10;;;;;;;;;;;;;;;13.81;68.35;100603.44;4429062;32;19953;-69
2022/04/18 02:11:36;;;;;;;;;;;;;;;14.35;67.08;100605.72;4418763;32;20077;-69
2022/04/18 02:14:01;;;;;;;;;;;;;;;14.09;67.25;100596.63;4429655;32;19992;-69
2022/04/18 02:16:28;;;;;;;;;;;;;;;14.00;66.87;100598.66;4425559;32;19969;-69
2022/04/18 02:18:54;;;;;;;;;;;;;;;13.66;68.87;100613.72;4429069;32;19961;-69
2022/04/18 02:21:20;;;;;;;;;;;;;;;13.54;68.33;100603.31;4430325;32;19950;-69
2022/04/18 02:23:46;;;;;;;;;;;;;;;13.63;68.26;100600.50;4431904;32;20345;-69
2022/04/18 02:26:11;;;;;;;;;;;;;;;14.10;66.46;100594.59;4429920;32;19993;-68
2022/04/18 02:28:37;;;;;;;;;;;;;;;14.16;65.90;100597.59;4430562;32;19990;-69
2022/04/18 02:31:02;;;;;;;;;;;;;;;13.70;67.60;100593.78;4431431;32;19953;-69
2022/04/18 02:33:28;;;;;;;;;;;;;;;13.57;67.77;100587.44;4430541;32;20371;-68
2022/04/18 02:35:54;;;;;;;;;;;;;;;13.49;67.92;100589.75;4435255;32;19975;-68
2022/04/18 02:38:20;;;;;;;;;;;;;;;13.48;67.77;100593.03;4434593;32;20342;-68
2022/04/18 02:40:46;;;;;;;;;;;;;;;13.42;67.96;100584.38;4430952;32;19954;-69
2022/04/18 02:43:12;;;;;;;;;;;;;;;13.43;67.90;100583.13;4430139;32;20440;-68
2022/04/18 02:45:37;;;;;;;;;;;;;;;13.41;68.04;100577.13;4425393;32;20453;-68
2022/04/18 02:48:04;;;;;;;;;;;;;;;13.40;68.78;100577.59;4432079;32;20327;-69
2022/04/18 02:50:30;;;;;;;;;;;;;;;13.38;68.54;100589.34;4432499;32;20018;-68
2022/04/18 02:52:56;;;;;;;;;;;;;;;13.51;67.70;100589.28;4432015;32;20011;-69
2022/04/18 02:55:22;;;;;;;;;;;;;;;13.51;67.30;100589.28;4432869;32;20390;-68
2022/04/18 02:57:48;;;;;;;;;;;;;;;13.45;67.64;100583.47;4432588;32;19969;-69
2022/04/18 03:00:14;;;;;;;;;;;;;;;13.43;67.28;100585.94;4428018;32;19953;-68
2022/04/18 03:02:39;;;;;;;;;;;;;;;13.30;67.31;100590.91;4432519;32;19961;-68
2022/04/18 03:05:06;;;;;;;;;;;;;;;13.30;67.31;100582.41;4425417;32;20605;-69
2022/04/18 03:07:33;;;;;;;;;;;;;;;13.32;66.94;100591.19;4431499;32;19965;-68
2022/04/18 03:09:59;;;;;;;;;;;;;;;13.13;67.76;100583.84;4430735;32;19998;-68
2022/04/18 03:12:24;;;;;;;;;;;;;;;13.14;68.48;100588.28;4430800;32;19961;-68
2022/04/18 03:14:50;;;;;;;;;;;;;;;13.18;67.87;100580.44;4427365;32;19989;-68
2022/04/18 03:17:17;;;;;;;;;;;;;;;13.16;67.91;100582.16;4431493;32;19984;-69
2022/04/18 03:19:42;;;;;;;;;;;;;;;13.13;68.11;100583.09;4429100;32;19998;-68
2022/04/18 03:22:08;;;;;;;;;;;;;;;13.07;67.24;100591.34;4429168;32;20388;-68
2022/04/18 03:24:34;;;;;;;;;;;;;;;13.01;67.93;100578.28;4429998;32;19968;-68
2022/04/18 03:27:01;;;;;;;;;;;;;;;12.81;68.21;100589.84;4429603;32;20331;-68
2022/04/18 03:29:29;;;;;;;;;;;;;;;12.71;68.24;100593.84;4428937;32;19961;-68
2022/04/18 03:31:54;;;;;;;;;;;;;;;12.70;68.04;100586.59;4429112;32;20387;-68
2022/04/18 03:34:20;;;;;;;;;;;;;;;12.70;67.56;100586.59;4419091;32;20327;-68
2022/04/18 03:40:05;;;;;;;;;;;;;;;12.78;67.09;100581.50;4427913;32;20005;-69
2022/04/18 03:42:29;;;;;;;;;;;;;;;12.57;67.27;100585.84;4413752;32;20376;-69
2022/04/18 03:44:56;;;;;;;;;;;;;;;12.65;66.61;100583.56;4424277;32;19954;-69
2022/04/18 03:47:22;;;;;;;;;;;;;;;12.56;66.72;100583.50;4427391;32;20465;-68
2022/04/18 03:49:47;;;;;;;;;;;;;;;12.50;66.60;100580.47;4428427;32;19980;-68
2022/04/18 03:52:13;;;;;;;;;;;;;;;12.47;66.69;100580.56;4429507;32;19949;-68
2022/04/18 03:54:40;;;;;;;;;;;;;;;12.38;67.86;100583.31;4429471;32;20339;-69
2022/04/18 03:57:06;;;;;;;;;;;;;;;12.34;67.15;100577.78;4429772;32;20310;-69
2022/04/18 03:59:32;;;;;;;;;;;;;;;12.34;66.98;100582.63;4428857;32;20007;-69
2022/04/18 04:01:58;;;;;;;;;;;;;;;12.24;66.53;100592.25;4429032;32;19949;-69
2022/04/18 04:04:24;;;;;;;;;;;;;;;12.50;65.97;100588.94;4418763;32;20293;-69
2022/04/18 04:06:50;;;;;;;;;;;;;;;12.41;65.15;100596.50;4424553;32;20384;-69
2022/04/18 04:09:16;;;;;;;;;;;;;;;12.37;65.22;100585.34;4430287;32;19945;-69
2022/04/18 04:11:41;;;;;;;;;;;;;;;12.43;64.54;100589.19;4428127;32;19996;-69
2022/04/18 04:14:15;;;;;;;;;;;;;;;12.39;64.60;100587.72;4424440;32;19994;-69
2022/04/18 04:16:44;;;;;;;;;;;;;;;12.32;64.84;100597.19;4427421;32;19949;-69
2022/04/18 04:19:20;;;;;;;;;;;;;;;12.25;65.01;100591.81;4429320;32;19969;-69
2022/04/18 04:21:46;;;;;;;;;;;;;;;12.05;64.65;100591.25;4428085;32;19937;-69
2022/04/18 04:24:21;;;;;;;;;;;;;;;12.15;63.87;100589.31;4427925;32;20024;-69
2022/04/18 04:26:48;;;;;;;;;;;;;;;12.04;64.44;100584.84;4430049;32;19957;-69
2022/04/18 04:29:15;;;;;;;;;;;;;;;12.21;64.27;100585.47;4429107;32;20170;-69
2022/04/18 04:31:41;;;;;;;;;;;;;;;12.16;64.49;100590.91;4429032;32;19992;-69
2022/04/18 04:34:10;;;;;;;;;;;;;;;12.23;64.32;100590.66;4415691;32;20420;-70
2022/04/18 04:36:36;;;;;;;;;;;;;;;12.07;63.86;100594.41;4431595;32;20285;-69
2022/04/18 04:39:02;;;;;;;;;;;;;;;12.14;63.95;100602.63;4430626;32;20023;-69
2022/04/18 04:41:28;;;;;;;;;;;;;;;12.15;64.03;100603.44;4427499;32;19965;-69
2022/04/18 04:43:54;;;;;;;;;;;;;;;12.16;63.40;100608.62;4419492;32;20396;-69
2022/04/18 04:46:20;;;;;;;;;;;;;;;12.13;63.79;100615.16;4426330;32;19978;-69
2022/04/18 04:48:46;;;;;;;;;;;;;;;12.16;63.63;100608.62;4431133;32;19973;-69
2022/04/18 04:51:11;;;;;;;;;;;;;;;12.18;63.16;100608.94;4415841;32;20043;-69
2022/04/18 04:53:37;;;;;;;;;;;;;;;12.04;63.95;100604.56;4413633;32;20298;-69
2022/04/18 04:56:03;;;;;;;;;;;;;;;12.08;63.90;100605.25;4429779;32;19979;-69
2022/04/18 04:58:28;;;;;;;;;;;;;;;12.02;64.32;100609.87;4426790;32;20388;-69
2022/04/18 05:00:53;;;;;;;;;;;;;;;12.00;64.12;100603.09;4422484;32;19954;-69
2022/04/18 05:03:19;;;;;;;;;;;;;;;12.21;63.35;100610.84;4415237;32;20747;-69
2022/04/18 05:05:44;;;;;;;;;;;;;;;12.11;63.70;100614.81;4419309;32;20298;-69
2022/04/18 05:08:10;;;;;;;;;;;;;;;12.06;63.74;100623.87;4430030;32;20474;-69
2022/04/18 05:10:35;;;;;;;;;;;;;;;11.94;63.71;100621.84;4423245;32;20077;-70
2022/04/18 05:13:01;;;;;;;;;;;;;;;11.94;63.94;100619.00;4418270;32;20007;-70
2022/04/18 05:15:26;;;;;;;;;;;;;;;11.92;64.03;100627.91;4424764;32;20394;-70
2022/04/18 05:17:51;;;;;;;;;;;;;;;12.17;63.29;100620.69;4422997;32;19996;-69
2022/04/18 05:20:17;;;;;;;;;;;;;;;12.05;63.40;100623.06;4423873;32;19972;-69
2022/04/18 05:22:42;;;;;;;;;;;;;;;12.35;62.77;100618.06;4429463;32;19954;-70
2022/04/18 05:25:08;;;;;;;;;;;;;;;12.18;62.90;100625.09;4430719;32;19969;-70
2022/04/18 05:27:34;;;;;;;;;;;;;;;12.13;63.38;100620.81;4427120;32;19967;-69
2022/04/18 05:29:59;;;;;;;;;;;;;;;12.09;63.71;100639.88;4431337;32;19997;-70
2022/04/18 05:32:25;;;;;;;;;;;;;;;12.05;64.01;100633.56;4429789;32;19954;-69
2022/04/18 05:34:51;;;;;;;;;;;;;;;12.07;64.25;100626.25;4431244;32;20057;-69
2022/04/18 05:37:16;;;;;;;;;;;;;;;12.24;63.61;100629.69;4429488;32;20005;-69
2022/04/18 05:39:42;;;;;;;;;;;;;;;12.18;63.71;100634.34;4429255;32;20369;-69
2022/04/18 05:42:07;;;;;;;;;;;;;;;12.22;63.49;100631.41;4432361;32;19961;-69
2022/04/18 05:44:33;;;;;;;;;;;;;;;12.48;62.65;100641.41;4419160;32;19958;-69
2022/04/18 05:47:00;;;;;;;;;;;;;;;12.66;62.55;100638.78;4433071;32;20011;-69
2022/04/18 05:49:25;;;;;;;;;;;;;;;12.76;62.01;100640.47;4434175;32;19997;-69
2022/04/18 05:51:51;;;;;;;;;;;;;;;12.76;61.63;100629.94;4434008;32;19984;-69
2022/04/18 05:54:16;;;;;;;;;;;;;;;12.91;60.97;100645.16;4434100;32;20384;-70
2022/04/18 05:56:42;;;;;;;;;;;;;;;12.69;61.58;100635.84;4430646;32;20033;-70
2022/04/18 05:59:07;;;;;;;;;;;;;;;12.90;61.54;100643.59;4434296;32;19937;-70
2022/04/18 06:01:33;;;;;;;;;;;;;;;12.90;61.12;100651.25;4433882;32;19990;-70
2022/04/18 06:03:58;;;;;;;;;;;;;;;13.05;60.91;100650.34;4427249;32;19965;-70
2022/04/18 06:06:24;;;;;;;;;;;;;;;13.17;60.80;100643.87;4428811;32;19953;-70
2022/04/18 06:08:49;;;;;;;;;;;;;;;13.39;59.75;100644.66;4430176;32;19946;-70
2022/04/18 06:11:15;;;;;;;;;;;;;;;13.53;59.07;100654.66;4429559;32;20046;-70
2022/04/18 06:13:41;;;;;;;;;;;;;;;13.65;58.98;100654.56;4423890;32;19988;-70
2022/04/18 06:16:07;;;;;;;;;;;;;;;13.61;58.95;100665.22;4430389;32;20429;-70
2022/04/18 06:18:33;;;;;;;;;;;;;;;13.65;58.23;100668.69;4431789;32;20347;-70
2022/04/18 06:20:59;;;;;;;;;;;;;;;13.68;58.67;100670.63;4429423;32;20303;-70
2022/04/18 06:23:25;;;;;;;;;;;;;;;13.68;58.67;100678.28;4430713;32;20456;-70
2022/04/18 06:25:51;;;;;;;;;;;;;;;13.71;57.84;100672.53;4429926;32;20373;-70
2022/04/18 06:28:19;;;;;;;;;;;;;;;13.78;57.86;100668.66;4426735;32;19968;-70
2022/04/18 06:30:44;;;;;;;;;;;;;;;13.75;57.97;100670.34;4426303;32;19958;-70
2022/04/18 06:33:11;;;;;;;;;;;;;;;13.87;57.93;100663.81;4419743;32;20440;-70
2022/04/18 06:35:36;;;;;;;;;;;;;;;14.16;57.16;100671.19;4426747;32;19965;-70
2022/04/18 06:38:02;;;;;;;;;;;;;;;14.77;55.34;100679.62;4424892;32;20324;-70
2022/04/18 06:40:28;;;;;;;;;;;;;;;14.38;55.59;100677.59;4420313;32;19994;-70
2022/04/18 06:42:53;;;;;;;;;;;;;;;14.21;56.63;100677.03;4423600;32;19953;-70
2022/04/18 06:45:19;;;;;;;;;;;;;;;14.25;56.37;100680.53;4423384;32;20001;-70
2022/04/18 06:47:44;;;;;;;;;;;;;;;14.32;56.76;100693.59;4432270;32;19954;-70
2022/04/18 06:50:12;;;;;;;;;;;;;;;14.69;55.12;100678.31;4428307;32;19965;-70
2022/04/18 06:52:38;;;;;;;;;;;;;;;14.97;54.21;100682.81;4428999;32;19961;-70
2022/04/18 06:55:04;;;;;;;;;;;;;;;14.80;55.01;100681.50;4430162;32;19971;-70
2022/04/18 06:57:30;;;;;;;;;;;;;;;14.67;54.96;100690.12;4431058;32;19961;-70
2022/04/18 06:59:55;;;;;;;;;;;;;;;14.25;56.93;100688.25;4428284;32;19946;-70
2022/04/18 07:02:21;;;;;;;;;;;;;;;14.48;56.75;100688.50;4430634;32;19989;-70
2022/04/18 07:04:48;;;;;;;;;;;;;;;14.62;56.39;100681.47;4414905;32;20386;-70
2022/04/18 07:07:14;;;;;;;;;;;;;;;14.69;55.69;100686.81;4427959;32;19963;-70
2022/04/18 07:09:40;;;;;;;;;;;;;;;14.78;55.54;100684.00;4424955;32;20347;-70
2022/04/18 07:12:06;;;;;;;;;;;;;;;14.88;55.40;100700.56;4431402;32;19977;-70
2022/04/18 07:14:31;;;;;;;;;;;;;;;14.79;55.37;100702.59;4427899;32;20000;-70
2022/04/18 07:16:57;;;;;;;;;;;;;;;14.90;54.80;100697.25;4417940;32;19954;-70
2022/04/18 07:19:23;;;;;;;;;;;;;;;14.94;55.73;100700.75;4430683;32;19971;-70
2022/04/18 07:21:49;;;;;;;;;;;;;;;15.09;54.73;100704.53;4428818;32;19949;-70
2022/04/18 07:24:14;;;;;;;;;;;;;;;14.90;55.20;100692.41;4429600;32;19957;-70
2022/04/18 07:26:40;;;;;;;;;;;;;;;15.11;54.68;100702.03;4423329;32;19958;-70
2022/04/18 07:29:06;;;;;;;;;;;;;;;15.24;54.75;100709.13;4419335;32;19954;-70
2022/04/18 07:31:32;;;;;;;;;;;;;;;15.10;53.67;100701.22;4426667;32;19989;-70
2022/04/18 07:33:58;;;;;;;;;;;;;;;15.02;54.21;100716.19;4429258;32;19945;-70
2022/04/18 07:36:23;;;;;;;;;;;;;;;14.97;54.14;100705.47;4426365;32;20002;-70
2022/04/18 07:38:49;;;;;;;;;;;;;;;15.16;53.41;100716.34;4426040;32;20344;-70
2022/04/18 07:41:16;;;;;;;;;;;;;;;15.37;53.26;100711.84;4430218;32;20299;-70
2022/04/18 07:43:42;;;;;;;;;;;;;;;15.66;52.31;100720.66;4422929;32;19985;-70
2022/04/18 07:46:08;;;;;;;;;;;;;;;15.38;52.99;100719.09;4410538;32;20048;-70
2022/04/18 07:48:34;;;;;;;;;;;;;;;15.46;52.73;100723.19;4429773;32;19964;-70
2022/04/18 07:53:45;;;;;;;;;;;;;;;15.87;51.50;100731.06;4428353;32;20377;-70
2022/04/18 07:56:10;;;;;;;;;;;;;;;15.72;52.23;100732.97;4430479;32;19969;-70
2022/04/18 07:58:36;;;;;;;;;;;;;;;15.86;51.77;100743.66;4430074;32;19986;-71
2022/04/18 08:01:01;;;;;;;;;;;;;;;15.88;51.61;100735.47;4422211;32;20004;-71
2022/04/18 08:03:27;;;;;;;;;;;;;;;15.97;51.42;100741.13;4430603;32;19968;-71
2022/04/18 08:05:55;;;;;;;;;;;;;;;16.06;51.14;100746.78;4430056;32;20008;-70
2022/04/18 08:08:20;;;;;;;;;;;;;;;16.15;50.56;100743.94;4430839;32;19949;-70
2022/04/18 08:10:46;;;;;;;;;;;;;;;16.20;50.77;100751.78;4429061;32;19973;-70
2022/04/18 08:13:12;;;;;;;;;;;;;;;16.06;50.97;100760.19;4428146;32;19985;-70
2022/04/18 08:15:38;;;;;;;;;;;;;;;16.27;50.62;100750.69;4429268;32;19957;-70
2022/04/18 08:18:03;;;;;;;;;;;;;;;16.36;49.62;100751.44;4429165;32;19957;-70
2022/04/18 08:20:29;;;;;;;;;;;;;;;16.35;48.80;100737.72;4429129;32;20181;-70
2022/04/18 08:22:54;;;;;;;;;;;;;;;16.66;48.36;100755.31;4428217;32;19961;-70
2022/04/18 08:25:20;;;;;;;;;;;;;;;16.35;48.54;100758.38;4428897;32;19964;-70
2022/04/18 08:27:46;;;;;;;;;;;;;;;16.35;48.33;100746.25;4429394;32;20275;-70
2022/04/18 08:30:12;;;;;;;;;;;;;;;16.26;49.09;100760.47;4427294;32;20354;-70
2022/04/18 08:32:39;;;;;;;;;;;;;;;16.60;48.22;100752.31;4428031;32;19961;-70
2022/04/18 08:35:06;;;;;;;;;;;;;;;16.44;47.93;100764.06;4429643;32;19994;-70
2022/04/18 08:37:32;;;;;;;;;;;;;;;16.19;48.03;100761.59;4429243;32;19951;-70
2022/04/18 08:39:57;;;;;;;;;;;;;;;16.40;47.33;100763.41;4428733;32;19950;-70
2022/04/18 08:42:23;;;;;;;;;;;;;;;16.40;47.32;100765.47;4419635;32;19954;-70
2022/04/18 08:44:50;;;;;;;;;;;;;;;16.43;47.61;100762.50;4422525;32;19949;-70
2022/04/18 08:52:50;;;;;;;;;;;;;;;15.98;48.06;100759.72;4421865;32;19950;-70
2022/04/18 08:55:17;;;;;;;;;;;;;;;15.97;48.39;100758.16;4429729;32;19982;-70
2022/04/18 08:57:42;;;;;;;;;;;;;;;15.95;48.05;100766.34;4425736;32;19994;-70
2022/04/18 09:00:09;;;;;;;;;;;;;;;16.18;47.79;100757.19;4427097;32;19953;-70
2022/04/18 09:02:34;;;;;;;;;;;;;;;16.52;46.12;100768.16;4427803;32;19950;-70
2022/04/18 09:05:00;;;;;;;;;;;;;;;16.50;46.20;100756.47;4423706;32;19968;-70
2022/04/18 09:07:26;;;;;;;;;;;;;;;17.17;45.31;100773.03;4425772;32;20018;-70
2022/04/18 09:09:55;;;;;;;;;;;;;;;17.53;43.92;100770.00;4428046;32;19984;-70
2022/04/18 09:12:23;;;;;;;;;;;;;;;17.63;43.83;100768.63;4428552;32;19953;-70
2022/04/18 09:14:50;;;;;;;;;;;;;;;17.69;42.51;100770.34;4427489;32;20085;-71
2022/04/18 09:17:35;;;;;;;;;;;;;;;17.58;42.82;100775.78;4429509;32;19949;-70
2022/04/18 09:20:05;;;;;;;;;;;;;;;17.62;42.98;100781.31;4428468;32;19962;-70
2022/04/18 09:22:30;;;;;;;;;;;;;;;17.59;42.32;100785.13;4425299;32;19976;-70
2022/04/18 09:24:56;;;;;;;;;;;;;;;17.34;42.92;100791.28;4429095;32;19993;-71
2022/04/18 09:27:27;;;;;;;;;;;;;;;17.25;42.54;100777.88;4424880;32;19999;-70
2022/04/18 09:30:03;;;;;;;;;;;;;;;17.56;43.13;100772.66;4431789;32;19958;-70
2022/04/18 09:32:28;;;;;;;;;;;;;;;17.78;41.35;100781.66;4431211;32;19949;-70
2022/04/18 09:35:02;;;;;;;;;;;;;;;17.90;40.85;100779.81;4429890;32;19985;-70
2022/04/18 09:37:32;;;;;;;;;;;;;;;18.33;40.48;100778.25;4426706;32;20015;-70
2022/04/18 09:39:58;;;;;;;;;;;;;;;18.48;38.47;100770.53;4432595;32;20358;-70
2022/04/18 09:42:25;;;;;;;;;;;;;;;18.72;38.59;100771.22;4434117;32;19961;-70
2022/04/18 09:44:51;;;;;;;;;;;;;;;18.81;38.42;100771.84;4424342;32;19991;-70
2022/04/18 09:47:17;;;;;;;;;;;;;;;18.56;38.46;100788.81;4430111;32;20343;-70
2022/04/18 09:49:43;;;;;;;;;;;;;;;18.51;37.93;100773.19;4431271;32;19953;-70
2022/04/18 09:52:11;;;;;;;;;;;;;;;18.56;38.24;100774.56;4430826;32;19963;-70
2022/04/18 09:54:40;;;;;;;;;;;;;;;18.65;37.24;100771.63;4429765;32;19949;-70
2022/04/18 09:57:06;;;;;;;;;;;;;;;18.87;37.29;100772.72;4426734;32;19965;-70
2022/04/18 09:59:32;;;;;;;;;;;;;;;19.09;37.02;100772.31;4432962;32;20007;-70
2022/04/18 10:01:58;;;;;;;;;;;;;;;19.11;36.96;100781.12;4431139;32;20334;-70
2022/04/18 10:04:24;;;;;;;;;;;;;;;19.41;36.12;100774.06;4432932;32;20029;-70
2022/04/18 10:06:52;;;;;;;;;;;;;;;19.81;35.17;100776.91;4414984;32;19958;-70
2022/04/18 10:09:18;;;;;;;;;;;;;;;19.15;36.39;100767.47;4430306;32;20276;-70
2022/04/18 10:11:45;;;;;;;;;;;;;;;19.13;36.16;100772.87;4429916;32;19971;-70
2022/04/18 10:14:11;;;;;;;;;;;;;;;19.27;36.32;100775.69;4415361;32;20113;-70
2022/04/18 10:16:38;;;;;;;;;;;;;;;19.46;34.81;100785.53;4424677;32;19954;-70
2022/04/18 10:19:09;;;;;;;;;;;;;;;19.66;34.38;100779.06;4430959;32;20321;-71
2022/04/18 10:21:36;;;;;;;;;;;;;;;19.58;34.62;100778.69;4430992;32;19991;-70
2022/04/18 10:24:22;;;;;;;;;;;;;;;19.76;32.82;100781.28;4431039;32;20071;-71
2022/04/18 10:29:26;;;;;;;;;;;;;;;20.35;31.60;100791.19;3937996;32;15845501;-70
2022/04/18 10:31:52;;;;;;;;;;;;;;;20.37;31.60;100792.63;4411541;32;19968;-70
2022/04/18 10:34:21;;;;;;;;;;;;;;;19.81;32.50;100782.63;4413021;32;19985;-70
2022/04/18 10:36:47;;;;;;;;;;;;;;;20.11;32.48;100789.72;4424654;32;19961;-70
2022/04/18 10:39:15;;;;;;;;;;;;;;;20.38;32.39;100786.41;4421309;32;19954;-70
2022/04/18 10:41:41;;;;;;;;;;;;;;;20.60;31.92;100789.47;4410810;32;20008;-70
2022/04/18 10:44:08;;;;;;;;;;;;;;;20.98;31.20;100788.22;4415310;32;19993;-70
2022/04/18 10:46:36;;;;;;;;;;;;;;;20.89;30.35;100788.41;4398919;32;19970;-70
2022/04/18 10:49:04;;;;;;;;;;;;;;;20.62;31.04;100780.38;4399400;32;20362;-70
2022/04/18 10:56:56;;;;;;;;;;;;;;;22.44;27.15;100802.19;3961931;32;15726392;-71
2022/04/18 10:59:23;;;;;;;;;;;;;;;22.44;27.15;100802.19;4439428;32;19956;-70
2022/04/18 11:01:50;;;;;;;;;;;;;;;21.93;27.72;100793.19;4440392;32;19961;-70
2022/04/18 11:04:15;;;;;;;;;;;;;;;21.93;28.16;100785.38;4442894;32;19945;-71
2022/04/18 11:06:44;;;;;;;;;;;;;;;22.31;27.84;100781.03;4440578;32;19956;-70
2022/04/18 11:09:10;;;;;;;;;;;;;;;22.23;27.86;100797.97;4441761;32;19949;-71
2022/04/18 11:11:37;;;;;;;;;;;;;;;22.26;27.27;100802.66;4433312;32;20115;-70
2022/04/18 11:14:20;;;;;;;;;;;;;;;22.27;26.81;100789.87;4432237;32;19983;-70
2022/04/18 11:16:47;;;;;;;;;;;;;;;22.45;26.26;100792.25;4429226;32;19968;-70
2022/04/18 11:29:59;;;;;;;;;;;;;;;22.83;26.35;100785.78;3957335;32;15722542;-71
2022/04/18 11:32:28;;;;;;;;;;;;;;;22.83;26.35;100785.78;4441224;32;20357;-71
2022/04/18 11:34:54;;;;;;;;;;;;;;;22.25;26.68;100794.56;4433221;32;19954;-71
2022/04/18 11:37:22;;;;;;;;;;;;;;;22.34;26.48;100788.59;4431544;32;19997;-71
2022/04/18 11:39:49;;;;;;;;;;;;;;;22.68;26.21;100790.22;4441624;32;20030;-71
2022/04/18 11:42:16;;;;;;;;;;;;;;;23.04;25.24;100789.94;4438031;32;19937;-71
2022/04/18 11:44:42;;;;;;;;;;;;;;;23.51;25.05;100783.06;4428985;32;19972;-71
2022/04/18 11:47:08;;;;;;;;;;;;;;;23.83;25.29;100791.34;4426206;32;19957;-71
2022/04/18 11:49:34;;;;;;;;;;;;;;;23.45;25.24;100784.41;4432305;32;20399;-70
2022/04/18 11:51:59;;;;;;;;;;;;;;;22.64;25.47;100786.84;4415152;32;19997;-71
2022/04/18 11:54:25;;;;;;;;;;;;;;;22.66;26.15;100775.63;4441518;32;20291;-71
2022/04/18 11:57:06;;;;;;;;;;;;;;;22.72;26.45;100782.13;4435936;32;20517;-71
2022/04/18 11:59:32;;;;;;;;;;;;;;;22.94;26.26;100779.25;4433311;32;20343;-71
2022/04/18 12:07:34;;;;;;;;;;;;;;;22.28;26.70;100773.47;4426591;32;20339;-71
2022/04/18 12:10:18;;;;;;;;;;;;;;;22.00;26.80;100779.13;4427490;32;19968;-71
2022/04/18 12:12:43;;;;;;;;;;;;;;;21.28;27.96;100781.66;4428611;32;20366;-71
2022/04/18 12:15:09;;;;;;;;;;;;;;;21.47;27.75;100784.88;4441246;32;19975;-71
2022/04/18 12:17:35;;;;;;;;;;;;;;;21.17;27.86;100777.97;4440521;32;19964;-71
2022/04/18 12:20:21;;;;;;;;;;;;;;;21.81;26.50;100785.84;4436800;32;19984;-71
2022/04/18 12:22:48;;;;;;;;;;;;;;;22.36;26.12;100774.53;4433009;32;19957;-71
2022/04/18 12:25:22;;;;;;;;;;;;;;;22.37;25.31;100774.00;4411570;32;20019;-71
2022/04/18 12:27:47;;;;;;;;;;;;;;;22.54;25.29;100774.84;4431516;32;19972;-71
2022/04/18 12:30:13;;;;;;;;;;;;;;;22.53;24.96;100773.28;4432059;32;19966;-71
2022/04/18 12:32:39;;;;;;;;;;;;;;;22.39;25.29;100779.22;4426670;32;19985;-71
2022/04/18 12:35:05;;;;;;;;;;;;;;;22.01;25.52;100774.19;4426280;32;20359;-71
2022/04/18 12:37:30;;;;;;;;;;;;;;;21.87;25.24;100766.59;4436314;32;20493;-71
2022/04/18 12:40:12;;;;;;;;;;;;;;;21.71;25.49;100776.66;4427651;32;20205;-71
2022/04/18 12:42:38;;;;;;;;;;;;;;;22.28;25.47;100771.41;4415292;32;20151;-71
2022/04/18 12:45:04;;;;;;;;;;;;;;;22.52;24.96;100765.19;4427821;32;20456;-71
2022/04/18 12:47:32;;;;;;;;;;;;;;;22.82;24.92;100758.41;4429199;32;19953;-71
2022/04/18 12:50:06;;;;;;;;;;;;;;;22.79;24.69;100764.38;4423782;32;19958;-71
2022/04/18 12:52:32;;;;;;;;;;;;;;;22.98;24.13;100771.19;4423346;32;19973;-71
2022/04/18 12:55:05;;;;;;;;;;;;;;;23.43;23.38;100766.91;4414287;32;20003;-71
2022/04/18 12:57:31;;;;;;;;;;;;;;;23.84;22.40;100761.28;4420061;32;19969;-71
2022/04/18 13:00:07;;;;;;;;;;;;;;;23.80;23.09;100761.53;4431449;32;20308;-71
2022/04/18 13:02:33;;;;;;;;;;;;;;;23.22;23.78;100754.16;4430007;32;19954;-71
2022/04/18 13:05:00;;;;;;;;;;;;;;;22.21;24.45;100753.94;4422460;32;19994;-71
2022/04/18 13:07:26;;;;;;;;;;;;;;;21.94;24.56;100755.44;4416446;32;19981;-71
2022/04/18 13:10:07;;;;;;;;;;;;;;;22.42;24.64;100747.41;4415391;32;20384;-71
2022/04/18 13:12:33;;;;;;;;;;;;;;;23.05;24.39;100750.53;4422719;32;19984;-71
2022/04/18 13:15:03;;;;;;;;;;;;;;;24.02;22.75;100752.06;4421627;32;19988;-71